sensor_id;sensor_type;location;lat;lon;timestamp;pressure;altitude;pressure_sealevel;temperature;humidity
11712;BME280;5912;51.034;6.984;2022-10-13T00:00:17;100982.84;;;9.56;100.00
11712;BME280;5912;51.034;6.984;2022-10-13T00:03:04;100986.09;;;9.58;100.00
11712;BME280;5912;51.034;6.984;2022-10-13T00:05:30;100982.47;;;9.59;100.00
11712;BME280;5912;51.034;6.984;2022-10-13T00:07:56;100983.94;;;9.62;100.00
11712;BME280;5912;51.034;6.984;2022-10-13T00:10:23;100980.09;;;9.64;100.00
11712;BME280;5912;51.034;6.984;2022-10-13T00:12:48;100982.53;;;9.66;100.00
11712;BME280;5912;51.034;6.984;2022-10-13T00:15:13;100966.31;;;9.56;100.00
11712;BME280;5912;51.034;6.984;2022-10-13T00:17:39;100982.34;;;9.67;100.00
11712;BME280;5912;51.034;6.984;2022-10-13T00:20:06;100975.28;;;9.68;100.00
11712;BME280;5912;51.034;6.984;2022-10-13T00:22:32;100980.16;;;9.71;100.00
11712;BME280;5912;51.034;6.984;2022-10-13T00:24:57;100948.72;;;9.56;100.00
11712;BME280;5912;51.034;6.984;2022-10-13T00:27:23;100972.91;;;9.73;100.00
11712;BME280;5912;51.034;6.984;2022-10-13T00:29:48;100968.69;;;9.72;100.00
11712;BME280;5912;51.034;6.984;2022-10-13T00:32:14;100969.66;;;9.71;100.00
11712;BME280;5912;51.034;6.984;2022-10-13T00:34:39;100962.34;;;9.66;100.00
11712;BME280;5912;51.034;6.984;2022-10-13T00:37:04;100974.91;;;9.71;100.00
11712;BME280;5912;51.034;6.984;2022-10-13T00:39:30;100965.81;;;9.67;100.00
11712;BME280;5912;51.034;6.984;2022-10-13T00:41:57;100975.28;;;9.68;100.00
11712;BME280;5912;51.034;6.984;2022-10-13T00:45:01;100958.72;;;9.67;100.00
11712;BME280;5912;51.034;6.984;2022-10-13T00:47:36;100968.63;;;9.65;100.00
11712;BME280;5912;51.034;6.984;2022-10-13T00:50:04;100974.47;;;9.67;100.00
11712;BME280;5912;51.034;6.984;2022-10-13T00:52:30;100972.47;;;9.69;100.00
11712;BME280;5912;51.034;6.984;2022-10-13T00:54:58;100971.31;;;9.72;100.00
11712;BME280;5912;51.034;6.984;2022-10-13T00:57:24;100961.97;;;9.69;100.00
11712;BME280;5912;51.034;6.984;2022-10-13T00:59:50;100957.88;;;9.60;100.00
11712;BME280;5912;51.034;6.984;2022-10-13T01:02:15;100956.66;;;9.63;100.00
11712;BME280;5912;51.034;6.984;2022-10-13T01:04:43;100959.91;;;9.65;100.00
11712;BME280;5912;51.034;6.984;2022-10-13T01:07:09;100957.75;;;9.68;100.00
11712;BME280;5912;51.034;6.984;2022-10-13T01:09:35;100950.66;;;9.69;100.00
11712;BME280;5912;51.034;6.984;2022-10-13T01:14:46;100948.47;;;9.72;100.00
11712;BME280;5912;51.034;6.984;2022-10-13T01:20:36;100929.53;;;9.77;100.00
11712;BME280;5912;51.034;6.984;2022-10-13T01:23:37;100925.91;;;9.78;100.00
11712;BME280;5912;51.034;6.984;2022-10-13T01:31:45;100918.03;;;9.78;100.00
11712;BME280;5912;51.034;6.984;2022-10-13T01:34:23;100917.59;;;9.74;100.00
11712;BME280;5912;51.034;6.984;2022-10-13T01:37:02;100916.78;;;9.74;100.00
11712;BME280;5912;51.034;6.984;2022-10-13T01:39:39;100909.91;;;9.73;100.00
11712;BME280;5912;51.034;6.984;2022-10-13T01:42:21;100912.72;;;9.71;100.00
11712;BME280;5912;51.034;6.984;2022-10-13T01:44:51;100909.72;;;9.74;100.00
11712;BME280;5912;51.034;6.984;2022-10-13T01:47:19;100906.72;;;9.77;100.00
11712;BME280;5912;51.034;6.984;2022-10-13T01:49:46;100903.47;;;9.75;100.00
11712;BME280;5912;51.034;6.984;2022-10-13T01:52:16;100910.94;;;9.78;100.00
11712;BME280;5912;51.034;6.984;2022-10-13T01:54:42;100896.75;;;9.66;100.00
11712;BME280;5912;51.034;6.984;2022-10-13T01:57:37;100907.53;;;9.78;100.00
11712;BME280;5912;51.034;6.984;2022-10-13T02:02:56;100896.59;;;9.74;100.00
11712;BME280;5912;51.034;6.984;2022-10-13T02:05:53;100901.84;;;9.74;100.00
11712;BME280;5912;51.034;6.984;2022-10-13T02:08:45;100903.47;;;9.75;100.00
11712;BME280;5912;51.034;6.984;2022-10-13T02:11:18;100886.53;;;9.78;100.00
11712;BME280;5912;51.034;6.984;2022-10-13T02:13:58;100894.59;;;9.76;100.00
11712;BME280;5912;51.034;6.984;2022-10-13T02:16:27;100893.78;;;9.76;100.00
11712;BME280;5912;51.034;6.984;2022-10-13T02:18:55;100891.59;;;9.79;100.00
11712;BME280;5912;51.034;6.984;2022-10-13T02:21:21;100894.22;;;9.79;100.00
11712;BME280;5912;51.034;6.984;2022-10-13T02:23:46;100890.97;;;9.77;100.00
11712;BME280;5912;51.034;6.984;2022-10-13T02:26:12;100882.06;;;9.78;100.00
11712;BME280;5912;51.034;6.984;2022-10-13T02:29:10;100887.94;;;9.80;100.00
11712;BME280;5912;51.034;6.984;2022-10-13T02:31:36;100882.47;;;9.75;100.00
11712;BME280;5912;51.034;6.984;2022-10-13T02:34:03;100881.47;;;9.76;100.00
11712;BME280;5912;51.034;6.984;2022-10-13T02:36:28;100885.75;;;9.84;100.00
11712;BME280;5912;51.034;6.984;2022-10-13T02:38:53;100883.94;;;9.84;100.00
11712;BME280;5912;51.034;6.984;2022-10-13T02:41:19;100891.44;;;9.87;100.00
11712;BME280;5912;51.034;6.984;2022-10-13T02:43:44;100884.56;;;9.86;100.00
11712;BME280;5912;51.034;6.984;2022-10-13T02:46:09;100895.69;;;9.88;100.00
11712;BME280;5912;51.034;6.984;2022-10-13T02:48:35;100871.16;;;9.75;100.00
11712;BME280;5912;51.034;6.984;2022-10-13T02:51:00;100890.81;;;9.85;100.00
11712;BME280;5912;51.034;6.984;2022-10-13T02:53:25;100889.81;;;9.86;100.00
11712;BME280;5912;51.034;6.984;2022-10-13T02:55:51;100891.84;;;9.84;100.00
11712;BME280;5912;51.034;6.984;2022-10-13T02:58:16;100895.44;;;9.83;100.00
11712;BME280;5912;51.034;6.984;2022-10-13T03:00:41;100893.06;;;9.88;100.00
11712;BME280;5912;51.034;6.984;2022-10-13T03:03:06;100894.84;;;9.88;100.00
11712;BME280;5912;51.034;6.984;2022-10-13T03:05:32;100884.78;;;9.91;100.00
11712;BME280;5912;51.034;6.984;2022-10-13T03:07:57;100888.19;;;9.85;100.00
11712;BME280;5912;51.034;6.984;2022-10-13T03:10:23;100890.44;;;9.88;100.00
11712;BME280;5912;51.034;6.984;2022-10-13T03:12:48;100888.22;;;9.92;100.00
11712;BME280;5912;51.034;6.984;2022-10-13T03:15:14;100881.19;;;9.92;100.00
11712;BME280;5912;51.034;6.984;2022-10-13T03:17:39;100859.47;;;9.77;100.00
11712;BME280;5912;51.034;6.984;2022-10-13T03:20:05;100856.25;;;9.82;100.00
11712;BME280;5912;51.034;6.984;2022-10-13T03:22:32;100873.50;;;9.97;100.00
11712;BME280;5912;51.034;6.984;2022-10-13T03:24:57;100848.41;;;9.88;100.00
11712;BME280;5912;51.034;6.984;2022-10-13T03:27:23;100871.75;;;10.04;100.00
11712;BME280;5912;51.034;6.984;2022-10-13T03:29:48;100868.28;;;10.04;100.00
11712;BME280;5912;51.034;6.984;2022-10-13T03:32:13;100851.31;;;10.00;100.00
11712;BME280;5912;51.034;6.984;2022-10-13T03:34:38;100861.03;;;10.06;100.00
11712;BME280;5912;51.034;6.984;2022-10-13T03:37:04;100858.88;;;10.09;100.00
11712;BME280;5912;51.034;6.984;2022-10-13T03:39:29;100854.25;;;10.11;100.00
11712;BME280;5912;51.034;6.984;2022-10-13T03:41:54;100855.84;;;10.12;100.00
11712;BME280;5912;51.034;6.984;2022-10-13T03:44:20;100853.66;;;10.16;100.00
11712;BME280;5912;51.034;6.984;2022-10-13T03:46:45;100851.22;;;10.14;100.00
11712;BME280;5912;51.034;6.984;2022-10-13T03:49:10;100843.94;;;10.16;100.00
11712;BME280;5912;51.034;6.984;2022-10-13T03:51:36;100844.56;;;10.18;100.00
11712;BME280;5912;51.034;6.984;2022-10-13T03:54:02;100844.38;;;10.20;100.00
11712;BME280;5912;51.034;6.984;2022-10-13T03:56:27;100829.59;;;10.12;100.00
11712;BME280;5912;51.034;6.984;2022-10-13T03:58:58;100827.81;;;10.19;100.00
11712;BME280;5912;51.034;6.984;2022-10-13T04:01:26;100840.78;;;10.27;100.00
11712;BME280;5912;51.034;6.984;2022-10-13T04:03:52;100840.78;;;10.27;100.00
11712;BME280;5912;51.034;6.984;2022-10-13T04:06:18;100835.13;;;10.30;100.00
11712;BME280;5912;51.034;6.984;2022-10-13T04:08:44;100833.09;;;10.32;100.00
11712;BME280;5912;51.034;6.984;2022-10-13T04:11:11;100828.47;;;10.34;100.00
11712;BME280;5912;51.034;6.984;2022-10-13T04:13:37;100834.34;;;10.36;100.00
11712;BME280;5912;51.034;6.984;2022-10-13T04:16:08;100836.56;;;10.39;100.00
11712;BME280;5912;51.034;6.984;2022-10-13T04:18:36;100827.69;;;10.40;100.00
11712;BME280;5912;51.034;6.984;2022-10-13T04:21:05;100835.34;;;10.42;100.00
11712;BME280;5912;51.034;6.984;2022-10-13T04:23:30;100832.53;;;10.43;100.00
11712;BME280;5912;51.034;6.984;2022-10-13T04:25:56;100826.09;;;10.46;100.00
11712;BME280;5912;51.034;6.984;2022-10-13T04:28:21;100818.19;;;10.46;100.00
11712;BME280;5912;51.034;6.984;2022-10-13T04:30:47;100816.75;;;10.43;100.00
11712;BME280;5912;51.034;6.984;2022-10-13T04:33:12;100823.84;;;10.43;100.00
11712;BME280;5912;51.034;6.984;2022-10-13T04:35:41;100820.41;;;10.42;100.00
11712;BME280;5912;51.034;6.984;2022-10-13T04:38:06;100822.63;;;10.39;100.00
11712;BME280;5912;51.034;6.984;2022-10-13T04:40:32;100823.84;;;10.36;100.00
11712;BME280;5912;51.034;6.984;2022-10-13T04:42:58;100812.09;;;10.32;100.00
11712;BME280;5912;51.034;6.984;2022-10-13T04:45:23;100825.03;;;10.34;100.00
11712;BME280;5912;51.034;6.984;2022-10-13T04:47:49;100813.91;;;10.32;100.00
11712;BME280;5912;51.034;6.984;2022-10-13T04:50:14;100814.91;;;10.31;100.00
11712;BME280;5912;51.034;6.984;2022-10-13T04:52:40;100760.03;;;10.02;100.00
11712;BME280;5912;51.034;6.984;2022-10-13T04:55:06;100813.28;;;10.30;100.00
11712;BME280;5912;51.034;6.984;2022-10-13T04:57:31;100817.34;;;10.32;100.00
11712;BME280;5912;51.034;6.984;2022-10-13T04:59:56;100804.38;;;10.24;100.00
11712;BME280;5912;51.034;6.984;2022-10-13T05:02:22;100795.69;;;10.24;100.00
11712;BME280;5912;51.034;6.984;2022-10-13T05:04:47;100788.22;;;10.21;100.00
11712;BME280;5912;51.034;6.984;2022-10-13T05:07:12;100811.09;;;10.33;100.00
11712;BME280;5912;51.034;6.984;2022-10-13T05:09:37;100803.00;;;10.35;100.00
11712;BME280;5912;51.034;6.984;2022-10-13T05:12:03;100773.66;;;10.25;100.00
11712;BME280;5912;51.034;6.984;2022-10-13T05:14:28;100801.00;;;10.37;100.00
11712;BME280;5912;51.034;6.984;2022-10-13T05:16:55;100806.63;;;10.34;100.00
11712;BME280;5912;51.034;6.984;2022-10-13T05:19:20;100794.72;;;10.31;100.00
11712;BME280;5912;51.034;6.984;2022-10-13T05:21:45;100803.59;;;10.30;100.00
11712;BME280;5912;51.034;6.984;2022-10-13T05:24:11;100809.66;;;10.31;100.00
11712;BME280;5912;51.034;6.984;2022-10-13T05:26:38;100803.81;;;10.29;100.00
11712;BME280;5912;51.034;6.984;2022-10-13T05:29:18;100804.19;;;10.32;100.00
11712;BME280;5912;51.034;6.984;2022-10-13T05:31:44;100797.94;;;10.33;100.00
11712;BME280;5912;51.034;6.984;2022-10-13T05:34:09;100809.69;;;10.37;100.00
11712;BME280;5912;51.034;6.984;2022-10-13T05:36:35;100798.19;;;10.38;100.00
11712;BME280;5912;51.034;6.984;2022-10-13T05:39:03;100805.03;;;10.39;100.00
11712;BME280;5912;51.034;6.984;2022-10-13T05:41:29;100804.84;;;10.41;100.00
11712;BME280;5912;51.034;6.984;2022-10-13T05:43:57;100804.03;;;10.40;100.00
11712;BME280;5912;51.034;6.984;2022-10-13T05:46:24;100783.00;;;10.40;100.00
11712;BME280;5912;51.034;6.984;2022-10-13T05:48:49;100769.88;;;10.40;100.00
11712;BME280;5912;51.034;6.984;2022-10-13T05:51:26;100769.06;;;10.33;100.00
11712;BME280;5912;51.034;6.984;2022-10-13T05:54:01;100773.09;;;10.36;100.00
11712;BME280;5912;51.034;6.984;2022-10-13T05:56:33;100792.31;;;10.36;100.00
11712;BME280;5912;51.034;6.984;2022-10-13T05:59:03;100773.69;;;10.31;100.00
11712;BME280;5912;51.034;6.984;2022-10-13T06:01:33;100771.69;;;10.33;100.00
11712;BME280;5912;51.034;6.984;2022-10-13T06:04:04;100773.72;;;10.38;100.00
11712;BME280;5912;51.034;6.984;2022-10-13T06:06:32;100786.66;;;10.39;100.00
11712;BME280;5912;51.034;6.984;2022-10-13T06:08:59;100786.66;;;10.39;100.00
11712;BME280;5912;51.034;6.984;2022-10-13T06:11:25;100771.69;;;10.40;100.00
11712;BME280;5912;51.034;6.984;2022-10-13T06:13:50;100777.34;;;10.43;100.00
11712;BME280;5912;51.034;6.984;2022-10-13T06:16:15;100769.25;;;10.45;100.00
11712;BME280;5912;51.034;6.984;2022-10-13T06:18:41;100764.03;;;10.52;100.00
11712;BME280;5912;51.034;6.984;2022-10-13T06:21:06;100768.69;;;10.50;100.00
11712;BME280;5912;51.034;6.984;2022-10-13T06:23:31;100760.41;;;10.53;100.00
11712;BME280;5912;51.034;6.984;2022-10-13T06:25:56;100772.75;;;10.59;100.00
11712;BME280;5912;51.034;6.984;2022-10-13T06:28:22;100767.28;;;10.60;100.00
11712;BME280;5912;51.034;6.984;2022-10-13T06:30:49;100775.59;;;10.64;100.00
11712;BME280;5912;51.034;6.984;2022-10-13T06:33:22;100775.81;;;10.69;100.00
11712;BME280;5912;51.034;6.984;2022-10-13T06:35:49;100774.38;;;10.73;100.00
11712;BME280;5912;51.034;6.984;2022-10-13T06:38:15;100773.97;;;10.76;100.00
11712;BME280;5912;51.034;6.984;2022-10-13T06:40:40;100775.59;;;10.70;100.00
11712;BME280;5912;51.034;6.984;2022-10-13T06:43:06;100777.00;;;10.79;100.00
11712;BME280;5912;51.034;6.984;2022-10-13T06:45:31;100771.56;;;10.81;100.00
11712;BME280;5912;51.034;6.984;2022-10-13T06:47:59;100779.66;;;10.86;100.00
11712;BME280;5912;51.034;6.984;2022-10-13T06:50:24;100782.09;;;10.87;100.00
11712;BME280;5912;51.034;6.984;2022-10-13T06:52:50;100783.06;;;10.93;100.00
11712;BME280;5912;51.034;6.984;2022-10-13T06:55:15;100762.03;;;10.93;100.00
11712;BME280;5912;51.034;6.984;2022-10-13T06:57:41;100767.72;;;11.03;100.00
11712;BME280;5912;51.034;6.984;2022-10-13T07:00:07;100775.00;;;11.14;100.00
11712;BME280;5912;51.034;6.984;2022-10-13T07:02:32;100768.75;;;11.21;100.00
11712;BME280;5912;51.034;6.984;2022-10-13T07:04:58;100750.13;;;11.23;100.00
11712;BME280;5912;51.034;6.984;2022-10-13T07:07:23;100763.03;;;11.37;100.00
11712;BME280;5912;51.034;6.984;2022-10-13T07:09:49;100751.72;;;11.37;100.00
11712;BME280;5912;51.034;6.984;2022-10-13T07:12:14;100775.13;;;11.58;100.00
11712;BME280;5912;51.034;6.984;2022-10-13T07:14:40;100761.59;;;11.61;100.00
11712;BME280;5912;51.034;6.984;2022-10-13T07:17:05;100774.91;;;11.79;100.00
11712;BME280;5912;51.034;6.984;2022-10-13T07:19:30;100777.31;;;11.87;100.00
11712;BME280;5912;51.034;6.984;2022-10-13T07:21:56;100784.78;;;11.97;99.93
11712;BME280;5912;51.034;6.984;2022-10-13T07:24:21;100784.13;;;12.08;100.00
11712;BME280;5912;51.034;6.984;2022-10-13T07:26:47;100759.63;;;12.07;99.72
11712;BME280;5912;51.034;6.984;2022-10-13T07:29:12;100763.63;;;12.16;99.10
11712;BME280;5912;51.034;6.984;2022-10-13T07:31:38;100767.84;;;12.24;98.47
11712;BME280;5912;51.034;6.984;2022-10-13T07:34:03;100771.22;;;12.37;97.91
11712;BME280;5912;51.034;6.984;2022-10-13T07:36:30;100761.69;;;12.36;96.21
11712;BME280;5912;51.034;6.984;2022-10-13T07:38:56;100758.06;;;12.37;96.02
11712;BME280;5912;51.034;6.984;2022-10-13T07:41:22;100760.03;;;12.42;96.31
11712;BME280;5912;51.034;6.984;2022-10-13T07:43:48;100754.81;;;12.35;95.88
11712;BME280;5912;51.034;6.984;2022-10-13T07:46:14;100769.13;;;12.46;96.22
11712;BME280;5912;51.034;6.984;2022-10-13T07:48:40;100766.50;;;12.46;96.15
11712;BME280;5912;51.034;6.984;2022-10-13T07:51:10;100777.66;;;12.48;96.03
11712;BME280;5912;51.034;6.984;2022-10-13T07:53:36;100774.00;;;12.42;95.26
11712;BME280;5912;51.034;6.984;2022-10-13T07:56:04;100774.41;;;12.46;95.28
11712;BME280;5912;51.034;6.984;2022-10-13T07:58:30;100764.69;;;12.46;95.59
11712;BME280;5912;51.034;6.984;2022-10-13T08:00:59;100770.94;;;12.52;96.01
11712;BME280;5912;51.034;6.984;2022-10-13T08:03:25;100762.69;;;12.42;95.38
11712;BME280;5912;51.034;6.984;2022-10-13T08:05:51;100774.38;;;12.52;96.09
11712;BME280;5912;51.034;6.984;2022-10-13T08:08:16;100770.88;;;12.58;95.84
11712;BME280;5912;51.034;6.984;2022-10-13T08:10:42;100750.81;;;12.57;95.43
11712;BME280;5912;51.034;6.984;2022-10-13T08:13:09;100766.09;;;12.80;95.19
11712;BME280;5912;51.034;6.984;2022-10-13T08:15:38;100761.50;;;12.93;94.96
11712;BME280;5912;51.034;6.984;2022-10-13T08:18:04;100771.72;;;13.14;94.83
11712;BME280;5912;51.034;6.984;2022-10-13T08:20:29;100765.06;;;13.30;94.42
11712;BME280;5912;51.034;6.984;2022-10-13T08:22:55;100777.22;;;13.56;93.29
11712;BME280;5912;51.034;6.984;2022-10-13T08:25:21;100779.28;;;13.72;92.76
11712;BME280;5912;51.034;6.984;2022-10-13T08:27:46;100773.84;;;13.85;92.13
11712;BME280;5912;51.034;6.984;2022-10-13T08:30:11;100776.13;;;13.99;91.36
11712;BME280;5912;51.034;6.984;2022-10-13T08:32:37;100764.00;;;13.92;90.49
11712;BME280;5912;51.034;6.984;2022-10-13T08:35:02;100784.22;;;14.16;89.25
11712;BME280;5912;51.034;6.984;2022-10-13T08:37:27;100780.31;;;14.25;89.19
11712;BME280;5912;51.034;6.984;2022-10-13T08:39:54;100781.81;;;14.32;88.38
11712;BME280;5912;51.034;6.984;2022-10-13T08:42:21;100778.94;;;14.34;88.27
11712;BME280;5912;51.034;6.984;2022-10-13T08:45:03;100750.00;;;14.21;87.28
11712;BME280;5912;51.034;6.984;2022-10-13T08:47:45;100768.97;;;14.36;86.56
11712;BME280;5912;51.034;6.984;2022-10-13T08:50:17;100754.69;;;14.37;87.06
11712;BME280;5912;51.034;6.984;2022-10-13T08:52:47;100763.03;;;14.52;86.69
11712;BME280;5912;51.034;6.984;2022-10-13T08:55:24;100759.03;;;14.61;85.65
11712;BME280;5912;51.034;6.984;2022-10-13T08:57:52;100748.00;;;14.64;84.99
11712;BME280;5912;51.034;6.984;2022-10-13T09:00:17;100752.53;;;14.87;83.74
11712;BME280;5912;51.034;6.984;2022-10-13T09:02:43;100742.97;;;14.97;84.66
11712;BME280;5912;51.034;6.984;2022-10-13T09:05:16;100753.16;;;15.35;84.05
11712;BME280;5912;51.034;6.984;2022-10-13T09:07:58;100755.66;;;15.64;81.01
11712;BME280;5912;51.034;6.984;2022-10-13T09:10:23;100753.34;;;15.79;78.94
11712;BME280;5912;51.034;6.984;2022-10-13T09:12:49;100751.94;;;15.88;79.13
11712;BME280;5912;51.034;6.984;2022-10-13T09:15:15;100736.44;;;15.97;78.85
11712;BME280;5912;51.034;6.984;2022-10-13T09:17:42;100748.34;;;16.22;77.38
11712;BME280;5912;51.034;6.984;2022-10-13T09:20:24;100748.69;;;16.26;75.44
11712;BME280;5912;51.034;6.984;2022-10-13T09:23:07;100743.72;;;16.29;75.61
11712;BME280;5912;51.034;6.984;2022-10-13T09:25:49;100751.09;;;16.27;75.00
11712;BME280;5912;51.034;6.984;2022-10-13T09:28:25;100733.75;;;16.08;74.91
11712;BME280;5912;51.034;6.984;2022-10-13T09:31:02;100761.00;;;16.04;76.97
11712;BME280;5912;51.034;6.984;2022-10-13T09:33:28;100741.25;;;16.11;77.52
11712;BME280;5912;51.034;6.984;2022-10-13T09:38:26;100741.00;;;16.41;74.97
11712;BME280;5912;51.034;6.984;2022-10-13T09:41:01;100736.31;;;16.60;74.74
11712;BME280;5912;51.034;6.984;2022-10-13T09:43:31;100730.16;;;16.87;74.42
11712;BME280;5912;51.034;6.984;2022-10-13T09:45:58;100741.47;;;17.16;73.24
11712;BME280;5912;51.034;6.984;2022-10-13T09:48:31;100734.59;;;17.36;72.13
11712;BME280;5912;51.034;6.984;2022-10-13T09:50:57;100728.53;;;17.57;70.49
11712;BME280;5912;51.034;6.984;2022-10-13T09:53:39;100721.56;;;17.73;69.12
11712;BME280;5912;51.034;6.984;2022-10-13T09:56:24;100734.81;;;17.95;67.87
11712;BME280;5912;51.034;6.984;2022-10-13T10:01:48;100728.72;;;17.94;66.84
11712;BME280;5912;51.034;6.984;2022-10-13T10:04:19;100735.69;;;18.00;67.22
11712;BME280;5912;51.034;6.984;2022-10-13T10:06:46;100720.63;;;18.11;67.15
11712;BME280;5912;51.034;6.984;2022-10-13T10:11:58;100719.75;;;18.27;64.80
11712;BME280;5912;51.034;6.984;2022-10-13T10:14:30;100722.34;;;18.43;64.74
11712;BME280;5912;51.034;6.984;2022-10-13T10:27:54;100708.00;;;20.96;54.01
11712;BME280;5912;51.034;6.984;2022-10-13T10:30:28;100707.41;;;21.14;53.22
11712;BME280;5912;51.034;6.984;2022-10-13T10:33:07;100692.38;;;21.33;53.10
11712;BME280;5912;51.034;6.984;2022-10-13T10:41:43;100695.84;;;22.08;48.59
11712;BME280;5912;51.034;6.984;2022-10-13T10:46:24;100681.94;;;21.37;49.08
11712;BME280;5912;51.034;6.984;2022-10-13T10:48:59;100680.44;;;21.01;50.18
11712;BME280;5912;51.034;6.984;2022-10-13T10:51:31;100680.19;;;20.67;52.06
11712;BME280;5912;51.034;6.984;2022-10-13T10:54:21;100678.06;;;20.39;52.85
11712;BME280;5912;51.034;6.984;2022-10-13T10:56:55;100673.75;;;20.18;53.53
11712;BME280;5912;51.034;6.984;2022-10-13T10:59:25;100672.91;;;20.07;54.54
11712;BME280;5912;51.034;6.984;2022-10-13T11:02:40;100663.84;;;20.08;55.41
11712;BME280;5912;51.034;6.984;2022-10-13T11:05:07;100663.91;;;20.18;54.87
11712;BME280;5912;51.034;6.984;2022-10-13T11:12:24;100667.13;;;20.40;55.07
11712;BME280;5912;51.034;6.984;2022-10-13T11:17:30;100652.41;;;20.38;55.54
11712;BME280;5912;51.034;6.984;2022-10-13T11:19:56;100655.88;;;20.28;56.06
11712;BME280;5912;51.034;6.984;2022-10-13T11:22:24;100648.13;;;20.22;54.38
11712;BME280;5912;51.034;6.984;2022-10-13T11:27:39;100643.78;;;19.86;55.84
11712;BME280;5912;51.034;6.984;2022-10-13T11:30:39;100647.97;;;19.62;56.99
11712;BME280;5912;51.034;6.984;2022-10-13T11:41:46;100633.22;;;19.39;59.51
11712;BME280;5912;51.034;6.984;2022-10-13T11:44:54;100643.34;;;19.32;59.58
11712;BME280;5912;51.034;6.984;2022-10-13T11:53:20;100634.28;;;18.50;65.10
11712;BME280;5912;51.034;6.984;2022-10-13T11:55:50;100629.56;;;18.30;66.68
11712;BME280;5912;51.034;6.984;2022-10-13T11:58:24;100632.13;;;18.20;67.80
11712;BME280;5912;51.034;6.984;2022-10-13T12:03:21;100621.66;;;17.82;71.00
11712;BME280;5912;51.034;6.984;2022-10-13T12:05:50;100621.25;;;17.68;72.52
11712;BME280;5912;51.034;6.984;2022-10-13T12:08:17;100609.69;;;17.58;74.15
11712;BME280;5912;51.034;6.984;2022-10-13T12:10:44;100620.53;;;17.51;75.59
11712;BME280;5912;51.034;6.984;2022-10-13T12:13:24;100613.91;;;17.54;76.48
11712;BME280;5912;51.034;6.984;2022-10-13T12:15:56;100600.31;;;17.50;77.81
11712;BME280;5912;51.034;6.984;2022-10-13T12:20:55;100619.13;;;17.70;75.28
11712;BME280;5912;51.034;6.984;2022-10-13T12:23:20;100612.91;;;17.87;76.99
11712;BME280;5912;51.034;6.984;2022-10-13T12:25:48;100613.38;;;18.05;77.50
11712;BME280;5912;51.034;6.984;2022-10-13T12:28:17;100615.69;;;18.28;76.40
11712;BME280;5912;51.034;6.984;2022-10-13T12:30:54;100616.78;;;18.59;75.87
11712;BME280;5912;51.034;6.984;2022-10-13T12:33:31;100613.66;;;18.72;73.26
11712;BME280;5912;51.034;6.984;2022-10-13T12:36:19;100611.94;;;18.92;74.08
11712;BME280;5912;51.034;6.984;2022-10-13T12:38:48;100599.78;;;19.11;74.59
11712;BME280;5912;51.034;6.984;2022-10-13T12:41:18;100621.50;;;19.35;74.29
11712;BME280;5912;51.034;6.984;2022-10-13T12:43:45;100608.47;;;19.44;73.62
11712;BME280;5912;51.034;6.984;2022-10-13T12:46:10;100605.56;;;19.60;73.96
11712;BME280;5912;51.034;6.984;2022-10-13T12:48:36;100599.47;;;19.75;73.46
11712;BME280;5912;51.034;6.984;2022-10-13T12:51:26;100600.00;;;19.87;71.43
11712;BME280;5912;51.034;6.984;2022-10-13T12:53:52;100601.91;;;19.91;70.51
11712;BME280;5912;51.034;6.984;2022-10-13T12:56:30;100597.59;;;19.80;65.39
11712;BME280;5912;51.034;6.984;2022-10-13T12:58:56;100602.91;;;19.60;64.80
11712;BME280;5912;51.034;6.984;2022-10-13T13:01:31;100604.75;;;19.50;66.92
11712;BME280;5912;51.034;6.984;2022-10-13T13:04:14;100596.97;;;19.38;68.03
11712;BME280;5912;51.034;6.984;2022-10-13T13:06:52;100595.00;;;19.18;68.24
11712;BME280;5912;51.034;6.984;2022-10-13T13:11:48;100596.22;;;18.96;70.96
11712;BME280;5912;51.034;6.984;2022-10-13T13:14:35;100599.84;;;18.75;71.44
11712;BME280;5912;51.034;6.984;2022-10-13T13:20:31;100592.69;;;18.12;71.95
11712;BME280;5912;51.034;6.984;2022-10-13T13:22:57;100582.97;;;17.96;73.58
11712;BME280;5912;51.034;6.984;2022-10-13T13:25:23;100593.03;;;17.89;76.22
11712;BME280;5912;51.034;6.984;2022-10-13T13:27:49;100567.59;;;17.72;76.16
11712;BME280;5912;51.034;6.984;2022-10-13T13:30:17;100584.44;;;17.82;77.35
11712;BME280;5912;51.034;6.984;2022-10-13T13:32:42;100570.56;;;17.75;77.76
11712;BME280;5912;51.034;6.984;2022-10-13T13:35:08;100581.22;;;17.80;76.57
11712;BME280;5912;51.034;6.984;2022-10-13T13:40:01;100576.59;;;17.70;76.09
11712;BME280;5912;51.034;6.984;2022-10-13T13:42:27;100580.72;;;17.56;74.75
11712;BME280;5912;51.034;6.984;2022-10-13T13:44:53;100587.78;;;17.46;76.55
11712;BME280;5912;51.034;6.984;2022-10-13T13:47:23;100574.03;;;17.32;77.14
11712;BME280;5912;51.034;6.984;2022-10-13T13:49:50;100577.31;;;17.18;78.22
11712;BME280;5912;51.034;6.984;2022-10-13T13:52:17;100577.19;;;17.08;80.12
11712;BME280;5912;51.034;6.984;2022-10-13T13:54:44;100577.06;;;16.98;81.09
11712;BME280;5912;51.034;6.984;2022-10-13T13:57:10;100572.66;;;16.87;82.11
11712;BME280;5912;51.034;6.984;2022-10-13T13:59:37;100574.41;;;16.76;83.40
11712;BME280;5912;51.034;6.984;2022-10-13T14:02:03;100546.69;;;16.51;84.58
11712;BME280;5912;51.034;6.984;2022-10-13T14:04:28;100572.00;;;16.58;85.24
11712;BME280;5912;51.034;6.984;2022-10-13T14:06:54;100568.78;;;16.56;86.02
11712;BME280;5912;51.034;6.984;2022-10-13T14:09:20;100561.72;;;16.62;86.62
11712;BME280;5912;51.034;6.984;2022-10-13T14:11:45;100568.13;;;16.66;86.24
11712;BME280;5912;51.034;6.984;2022-10-13T14:14:11;100559.91;;;16.67;85.77
11712;BME280;5912;51.034;6.984;2022-10-13T14:16:36;100561.63;;;16.73;86.18
11712;BME280;5912;51.034;6.984;2022-10-13T14:19:01;100555.06;;;16.81;86.37
11712;BME280;5912;51.034;6.984;2022-10-13T14:21:27;100557.22;;;16.84;85.86
11712;BME280;5912;51.034;6.984;2022-10-13T14:23:52;100546.88;;;16.82;85.42
11712;BME280;5912;51.034;6.984;2022-10-13T14:26:17;100550.53;;;16.81;85.62